Time;durP1;ratioP1;P1;durP2;ratioP2;P2;SDS_P1;SDS_P2;PMS_P1;PMS_P2;Temp;Humidity;BMP_temperature;BMP_pressure;BME280_temperature;BME280_humidity;BME280_pressure;Samples;Min_cycle;Max_cycle;Signal;HPM_P1;HPM_P2
2022/12/27 00:02:11;;;;;;;11.90;8.38;;;;;;;7.47;100.00;99165.78;5058922;28;20032;-64
2022/12/27 00:04:37;;;;;;;12.95;8.68;;;;;;;7.48;100.00;99164.88;5045877;28;20104;-65
2022/12/27 00:07:03;;;;;;;14.98;9.32;;;;;;;7.49;100.00;99163.91;5027915;28;20071;-66
2022/12/27 00:09:29;;;;;;;14.13;9.13;;;;;;;7.39;100.00;99162.09;5039735;28;20025;-67
2022/12/27 00:11:54;;;;;;;13.48;10.00;;;;;;;7.08;100.00;99126.34;5041496;28;20111;-65
2022/12/27 00:14:20;;;;;;;13.35;9.32;;;;;;;7.36;100.00;99170.91;5045840;28;20028;-64
2022/12/27 00:16:45;;;;;;;14.55;9.60;;;;;;;7.34;100.00;99165.03;5036437;28;20020;-64
2022/12/27 00:19:11;;;;;;;14.20;9.73;;;;;;;7.35;100.00;99177.00;5071704;28;20056;-62
2022/12/27 00:21:36;;;;;;;12.85;9.45;;;;;;;7.32;100.00;99174.66;5059009;28;20044;-65
2022/12/27 00:24:03;;;;;;;13.02;9.38;;;;;;;7.37;100.00;99175.13;5042811;28;20057;-63
2022/12/27 00:26:32;;;;;;;13.43;9.13;;;;;;;7.30;100.00;99161.00;5048800;28;20050;-65
2022/12/27 00:28:58;;;;;;;13.27;9.97;;;;;;;7.40;100.00;99163.75;5026376;28;20200;-62
2022/12/27 00:31:25;;;;;;;15.30;9.80;;;;;;;7.42;100.00;99167.06;5046724;28;20538;-63
2022/12/27 00:33:53;;;;;;;13.27;8.82;;;;;;;7.45;100.00;99166.84;5033411;28;20025;-63
2022/12/27 00:36:23;;;;;;;14.13;9.70;;;;;;;7.46;100.00;99165.91;5022792;28;20170;-62
2022/12/27 00:38:49;;;;;;;;;;;;;;;7.37;100.00;99167.38;5026059;28;20017;-65
2022/12/27 00:41:15;;;;;;;15.88;10.52;;;;;;;7.32;100.00;99175.50;5043149;28;19923;-65
2022/12/27 00:43:42;;;;;;;16.77;10.95;;;;;;;7.32;100.00;99172.09;5019621;28;20036;-65
2022/12/27 00:46:08;;;;;;;16.15;11.00;;;;;;;7.32;100.00;99164.31;5039420;28;20064;-61
2022/12/27 00:48:34;;;;;;;15.48;10.50;;;;;;;7.29;100.00;99180.88;5025307;28;20033;-64
2022/12/27 00:51:07;;;;;;;15.40;10.88;;;;;;;7.32;100.00;99175.50;5044345;28;20115;-60
2022/12/27 00:53:33;;;;;;;15.77;10.23;;;;;;;7.01;100.00;99130.31;5020608;28;20051;-65
2022/12/27 00:55:59;;;;;;;15.88;10.82;;;;;;;7.39;100.00;99178.47;5026176;28;20850;-64
2022/12/27 00:58:24;;;;;;;13.90;9.52;;;;;;;7.41;100.00;99174.00;5042137;28;20029;-65
2022/12/27 01:00:51;;;;;;;14.38;10.10;;;;;;;7.31;100.00;99170.41;5042601;28;20107;-63
2022/12/27 01:03:16;;;;;;;13.63;9.57;;;;;;;7.31;100.00;99175.59;5049013;28;20119;-63
2022/12/27 01:05:42;;;;;;;15.18;9.45;;;;;;;7.28;100.00;99166.31;5041917;28;20043;-61
2022/12/27 01:08:08;;;;;;;14.60;10.23;;;;;;;7.27;100.00;99180.16;5046157;28;20028;-63
2022/12/27 01:10:34;;;;;;;14.75;9.77;;;;;;;7.30;100.00;99167.00;5060164;28;20051;-65
2022/12/27 01:13:01;;;;;;;14.45;9.35;;;;;;;7.24;100.00;99162.25;5029457;28;20092;-61
2022/12/27 01:15:26;;;;;;;13.68;8.85;;;;;;;7.24;100.00;99156.28;5039531;28;20111;-63
2022/12/27 01:17:52;;;;;;;14.02;9.13;;;;;;;7.28;100.00;99158.53;5042987;28;20043;-63
2022/12/27 01:20:17;;;;;;;13.07;8.65;;;;;;;7.17;100.00;99160.22;5043565;28;20024;-64
2022/12/27 01:22:43;;;;;;;12.05;8.02;;;;;;;7.14;100.00;99158.69;5031288;28;20025;-63
2022/12/27 01:25:09;;;;;;;10.18;7.50;;;;;;;7.11;100.00;99162.31;5061803;28;20604;-64
2022/12/27 01:27:34;;;;;;;10.80;7.20;;;;;;;7.09;100.00;99176.31;5072899;28;20024;-61
2022/12/27 01:29:59;;;;;;;11.45;7.97;;;;;;;7.01;100.00;99165.66;5038358;28;20024;-64
2022/12/27 01:32:25;;;;;;;12.35;7.72;;;;;;;7.12;100.00;99168.34;5061620;28;20610;-63
2022/12/27 01:34:50;;;;;;;11.77;7.85;;;;;;;6.97;100.00;99159.88;5044273;28;20029;-63
2022/12/27 01:37:16;;;;;;;10.05;6.90;;;;;;;6.99;100.00;99150.28;5033416;28;20043;-66
2022/12/27 01:39:41;;;;;;;11.20;7.70;;;;;;;6.99;100.00;99162.34;5063070;28;20016;-63
2022/12/27 01:45:02;;;;;;;12.73;8.32;;;;;;;6.77;100.00;99143.19;5043412;28;20110;-67
2022/12/27 01:47:45;;;;;;;11.30;7.35;;;;;;;6.90;100.00;99175.00;5021127;28;20025;-63
2022/12/27 01:50:19;;;;;;;13.63;8.45;;;;;;;7.06;100.00;99179.09;5025229;28;20036;-64
2022/12/27 01:52:44;;;;;;;13.25;8.60;;;;;;;6.77;100.00;99137.19;5044663;28;20020;-64
2022/12/27 01:55:25;;;;;;;11.45;7.82;;;;;;;7.08;100.00;99177.22;5044148;28;20583;-63
2022/12/27 01:57:53;;;;;;;12.32;8.00;;;;;;;7.18;100.00;99186.00;5032029;28;20039;-62
2022/12/27 02:00:19;;;;;;;11.52;8.38;;;;;;;7.13;100.00;99173.38;5049017;28;20113;-62
2022/12/27 02:02:44;;;;;;;12.60;8.05;;;;;;;7.19;100.00;99185.06;5044554;28;20035;-62
2022/12/27 02:05:12;;;;;;;11.43;7.97;;;;;;;7.07;100.00;99189.34;5041645;28;20021;-63
2022/12/27 02:08:03;;;;;;;12.32;8.70;;;;;;;7.07;100.00;99191.91;5026201;28;20028;-63
2022/12/27 02:10:29;;;;;;;12.10;7.75;;;;;;;6.90;100.00;99180.19;5049974;28;20044;-65
2022/12/27 02:12:56;;;;;;;12.23;8.10;;;;;;;6.89;100.00;99178.53;5028182;28;20517;-63
2022/12/27 02:15:21;;;;;;;12.43;7.43;;;;;;;6.92;100.00;99177.50;5029160;28;20033;-68
2022/12/27 02:17:47;;;;;;;13.18;8.88;;;;;;;6.88;100.00;99171.72;5046565;28;20039;-63
2022/12/27 02:20:17;;;;;;;11.75;8.15;;;;;;;6.88;100.00;99182.06;5042466;28;20028;-63
2022/12/27 02:25:50;;;;;;;11.30;7.47;;;;;;;6.59;100.00;99155.66;5057309;28;19985;-62
2022/12/27 02:28:47;;;;;;;11.43;6.40;;;;;;;6.85;100.00;99194.38;5044358;28;20029;-63
2022/12/27 02:31:23;;;;;;;13.32;8.27;;;;;;;6.82;100.00;99200.56;5061422;28;20873;-63
2022/12/27 02:33:51;;;;;;;11.00;7.80;;;;;;;6.86;100.00;99186.50;5040995;28;20021;-65
2022/12/27 02:36:22;;;;;;;11.88;7.32;;;;;;;6.82;100.00;99176.47;5025721;28;20059;-64
2022/12/27 02:38:51;;;;;;;11.50;7.45;;;;;;;6.74;100.00;99177.84;5024579;28;20031;-63
2022/12/27 02:59:06;;;;;;;10.93;7.20;;;;;;;6.95;100.00;99171.28;5061660;28;20127;-66
2022/12/27 03:05:03;;;;;;;14.13;8.00;;;;;;;6.61;100.00;99133.09;5061086;28;20177;-63
2022/12/27 03:07:52;;;;;;;12.93;8.25;;;;;;;6.47;100.00;99122.91;5031495;28;20055;-64
2022/12/27 03:16:24;;;;;;;11.02;7.82;;;;;;;6.70;100.00;99163.47;5044672;28;20055;-63
2022/12/27 03:18:57;;;;;;;13.13;8.13;;;;;;;6.21;100.00;99091.94;5025633;28;20024;-66
2022/12/27 03:27:04;;;;;;;14.32;8.02;;;;;;;6.48;100.00;99165.88;5045302;28;20032;-65
2022/12/27 03:35:16;;;;;;;13.43;8.48;;;;;;;6.65;100.00;99181.06;5045345;28;20039;-65
2022/12/27 03:38:04;;;;;;;11.35;7.07;;;;;;;6.57;100.00;99172.16;5021608;28;20424;-65
2022/12/27 03:43:38;;;;;;;11.77;8.15;;;;;;;6.43;100.00;99179.13;4994284;28;20098;-64
2022/12/27 03:49:01;;;;;;;10.88;7.28;;;;;;;6.46;100.00;99178.91;5041387;28;20039;-63
2022/12/27 03:51:29;;;;;;;10.88;6.80;;;;;;;6.37;100.00;99176.13;5042287;28;20033;-65
2022/12/27 03:54:00;;;;;;;11.30;6.95;;;;;;;6.41;100.00;99183.56;5065884;28;20111;-63
2022/12/27 03:56:25;;;;;;;10.82;7.03;;;;;;;6.22;100.00;99142.66;5027329;28;20059;-64
2022/12/27 03:58:52;;;;;;;10.65;6.68;;;;;;;6.55;100.00;99177.44;5031966;28;20100;-63
2022/12/27 04:01:17;;;;;;;11.07;6.85;;;;;;;6.58;100.00;99172.06;5061878;28;20025;-62
2022/12/27 04:03:43;;;;;;;11.27;6.22;;;;;;;6.46;100.00;99175.50;5062425;28;20048;-62
2022/12/27 04:06:09;;;;;;;11.48;7.28;;;;;;;6.48;100.00;99165.88;5058903;28;20028;-63
2022/12/27 04:35:55;;;;;;;12.80;8.02;;;;;;;6.30;100.00;99163.63;5049561;28;20282;-63
2022/12/27 04:38:20;;;;;;;10.15;6.47;;;;;;;6.31;100.00;99161.88;5061559;28;20804;-62
2022/12/27 04:54:57;;;;;;;9.57;6.35;;;;;;;6.11;100.00;99151.13;5063022;28;20086;-61
2022/12/27 04:57:23;;;;;;;10.40;6.05;;;;;;;6.10;100.00;99156.41;5059820;28;20029;-64
2022/12/27 05:02:32;;;;;;;9.35;6.25;;;;;;;6.04;100.00;99170.56;5044036;28;20051;-63
2022/12/27 05:04:58;;;;;;;9.93;6.50;;;;;;;6.10;100.00;99161.56;5042069;28;20378;-63
2022/12/27 05:15:37;;;;;;;10.20;6.40;;;;;;;6.05;100.00;99174.78;5048309;28;20034;-63
2022/12/27 05:18:03;;;;;;;9.38;5.95;;;;;;;6.04;100.00;99169.72;5061570;28;20033;-64
2022/12/27 05:20:28;;;;;;;10.45;6.18;;;;;;;6.08;100.00;99176.34;5046797;28;20029;-64
2022/12/27 05:25:43;;;;;;;10.68;6.40;;;;;;;6.09;100.00;99177.97;5062137;28;20705;-62
2022/12/27 05:28:11;;;;;;;8.45;5.63;;;;;;;6.05;100.00;99190.25;5018901;28;20071;-66
2022/12/27 05:30:39;;;;;;;10.63;6.00;;;;;;;6.01;100.00;99183.66;5043252;28;20044;-64
2022/12/27 05:33:05;;;;;;;9.80;5.95;;;;;;;6.04;100.00;99183.47;5022328;28;20029;-67
2022/12/27 05:35:30;;;;;;;10.90;5.88;;;;;;;6.06;100.00;99184.19;5061820;28;20467;-67
2022/12/27 05:37:56;;;;;;;8.43;5.28;;;;;;;6.07;100.00;99192.75;5062710;28;20063;-63
2022/12/27 05:40:22;;;;;;;11.25;5.47;;;;;;;6.07;100.00;99195.31;5059684;28;20082;-62
2022/12/27 05:42:48;;;;;;;9.57;6.15;;;;;;;6.02;100.00;99181.91;5027921;28;20086;-65
2022/12/27 05:45:14;;;;;;;9.85;5.88;;;;;;;6.02;100.00;99184.47;5038599;28;20028;-67
2022/12/27 05:47:40;;;;;;;9.10;5.38;;;;;;;6.03;100.00;99183.56;5026217;28;20029;-61
2022/12/27 05:50:06;;;;;;;12.07;5.95;;;;;;;6.08;100.00;99189.25;5029188;28;20051;-63
2022/12/27 05:52:32;;;;;;;10.50;5.80;;;;;;;5.83;100.00;99151.28;5028006;28;20028;-61
2022/12/27 05:54:57;;;;;;;9.88;6.07;;;;;;;5.95;100.00;99190.06;5042690;28;20463;-64
2022/12/27 05:57:23;;;;;;;9.88;5.70;;;;;;;5.66;100.00;99149.78;5062324;28;20055;-66
2022/12/27 05:59:48;;;;;;;8.63;5.32;;;;;;;5.76;100.00;99161.19;5062849;28;20032;-64
2022/12/27 06:02:14;;;;;;;7.95;5.32;;;;;;;5.97;100.00;99198.53;5059533;28;20035;-64
2022/12/27 06:04:41;;;;;;;8.50;5.20;;;;;;;6.04;100.00;99206.69;5038332;28;20040;-63
2022/12/27 06:07:09;;;;;;;8.75;5.00;;;;;;;6.07;100.00;99209.06;5063807;28;20161;-62
2022/12/27 06:09:35;;;;;;;8.30;5.15;;;;;;;5.87;100.00;99170.81;5029295;28;20028;-64
2022/12/27 06:12:00;;;;;;;9.27;5.15;;;;;;;6.05;100.00;99212.69;5030901;28;20877;-63
2022/12/27 06:14:26;;;;;;;10.00;5.60;;;;;;;6.01;100.00;99222.38;5066073;28;20032;-62
2022/12/27 06:16:51;;;;;;;9.27;5.78;;;;;;;6.09;100.00;99216.72;5044680;28;20020;-66
2022/12/27 06:19:17;;;;;;;9.48;5.63;;;;;;;5.97;100.00;99220.94;5028302;28;20044;-65
2022/12/27 06:21:42;;;;;;;8.38;5.35;;;;;;;5.91;100.00;99218.69;5041665;28;20081;-62
2022/12/27 06:24:08;;;;;;;8.70;5.05;;;;;;;6.03;100.00;99214.53;5047007;28;20036;-63
2022/12/27 06:26:33;;;;;;;9.77;5.03;;;;;;;6.08;100.00;99204.75;5057684;28;20025;-62
2022/12/27 06:28:59;;;;;;;8.68;5.07;;;;;;;5.75;100.00;99193.91;5045532;28;20024;-64
2022/12/27 06:31:25;;;;;;;9.73;5.95;;;;;;;6.02;100.00;99225.78;5059398;28;20036;-66
2022/12/27 06:33:51;;;;;;;8.68;5.00;;;;;;;5.92;100.00;99226.34;5056262;28;20021;-64
2022/12/27 06:36:19;;;;;;;8.30;5.22;;;;;;;5.96;100.00;99230.41;5024329;28;20033;-64
2022/12/27 06:38:44;;;;;;;8.65;5.60;;;;;;;5.98;100.00;99227.72;5029353;28;20055;-61
2022/12/27 06:41:13;;;;;;;9.63;4.97;;;;;;;5.91;100.00;99237.63;5041702;28;20506;-66
2022/12/27 06:43:39;;;;;;;9.20;5.50;;;;;;;5.95;100.00;99236.53;5025410;28;20116;-65
2022/12/27 06:46:08;;;;;;;8.40;5.57;;;;;;;5.92;100.00;99234.09;5028308;28;20712;-63
2022/12/27 06:48:34;;;;;;;9.23;5.25;;;;;;;5.98;100.00;99243.22;5027055;28;20107;-62
2022/12/27 06:51:03;;;;;;;9.90;5.03;;;;;;;6.00;100.00;99241.38;5027372;28;20029;-62
2022/12/27 06:53:29;;;;;;;8.83;4.87;;;;;;;6.01;100.00;99253.34;5041275;28;20117;-68
2022/12/27 06:56:17;;;;;;;8.75;5.03;;;;;;;6.03;100.00;99253.25;5061668;28;20028;-63
2022/12/27 06:58:45;;;;;;;7.95;4.30;;;;;;;6.01;100.00;99253.34;5045324;28;20024;-62
2022/12/27 07:01:31;;;;;;;7.40;4.22;;;;;;;5.99;100.00;99244.03;5058431;28;20161;-64
2022/12/27 07:03:58;;;;;;;8.05;4.55;;;;;;;5.82;100.00;99222.69;5021105;28;20029;-66
2022/12/27 07:06:25;;;;;;;8.07;4.90;;;;;;;6.02;100.00;99257.56;5029156;28;20549;-63
2022/12/27 07:08:51;;;;;;;9.07;4.70;;;;;;;5.87;100.00;99255.97;5024066;28;20025;-61
2022/12/27 07:11:18;;;;;;;8.63;4.88;;;;;;;5.64;100.00;99219.59;5058023;28;20109;-63
2022/12/27 07:13:47;;;;;;;9.10;4.75;;;;;;;5.89;100.00;99259.28;5026363;28;20813;-66
2022/12/27 07:16:15;;;;;;;7.38;4.18;;;;;;;5.89;100.00;99257.50;5042258;28;20094;-62
2022/12/27 07:18:41;;;;;;;8.63;4.60;;;;;;;5.85;100.00;99248.31;5023582;28;20066;-65
2022/12/27 07:21:09;;;;;;;7.45;4.25;;;;;;;5.99;100.00;99265.53;5041871;28;20512;-62
2022/12/27 07:23:36;;;;;;;7.45;4.32;;;;;;;5.86;100.00;99262.91;5023226;28;20041;-61
2022/12/27 07:26:09;;;;;;;9.02;4.60;;;;;;;5.86;100.00;99275.81;5008022;28;20460;-66
2022/12/27 07:28:34;;;;;;;7.28;4.38;;;;;;;5.87;100.00;99276.63;5046528;28;20099;-64
2022/12/27 07:31:08;;;;;;;7.72;4.50;;;;;;;5.88;100.00;99283.44;5047016;28;20116;-67
2022/12/27 07:33:35;;;;;;;6.80;4.32;;;;;;;5.57;100.00;99236.38;5040911;28;20533;-63
2022/12/27 07:36:01;;;;;;;7.00;4.20;;;;;;;5.97;100.00;99294.03;5030052;28;20120;-63
2022/12/27 07:38:27;;;;;;;7.60;4.18;;;;;;;5.95;100.00;99295.88;5024462;28;20112;-67
2022/12/27 07:40:52;;;;;;;7.93;4.10;;;;;;;5.92;100.00;99296.03;5042261;28;20685;-62
2022/12/27 07:43:19;;;;;;;7.60;3.95;;;;;;;5.97;100.00;99296.63;5021205;28;20031;-61
2022/12/27 07:45:44;;;;;;;7.07;3.65;;;;;;;5.96;100.00;99301.88;5025345;28;20025;-64
2022/12/27 07:48:10;;;;;;;7.00;4.05;;;;;;;6.06;100.00;99300.38;5043578;28;20032;-64
2022/12/27 07:50:35;;;;;;;7.22;4.18;;;;;;;6.07;100.00;99296.03;5041000;28;20048;-66
2022/12/27 07:53:01;;;;;;;7.18;4.38;;;;;;;6.00;100.00;99294.75;5042045;28;20036;-63
2022/12/27 07:55:26;;;;;;;6.28;3.65;;;;;;;5.82;100.00;99258.84;5060099;28;20025;-63
2022/12/27 07:57:52;;;;;;;6.32;3.78;;;;;;;6.06;100.00;99300.38;5051095;28;20089;-67
2022/12/27 08:00:18;;;;;;;6.55;3.72;;;;;;;5.95;100.00;99293.31;5042400;28;20059;-61
2022/12/27 08:02:45;;;;;;;8.70;3.92;;;;;;;5.90;100.00;99292.75;5040068;28;20025;-64
2022/12/27 08:05:11;;;;;;;6.22;3.47;;;;;;;5.57;100.00;99257.00;5041860;28;20035;-62
2022/12/27 08:07:37;;;;;;;8.05;4.00;;;;;;;5.83;100.00;99299.22;5037033;28;20033;-62
2022/12/27 08:10:03;;;;;;;6.55;4.13;;;;;;;5.78;100.00;99301.25;5036577;28;20059;-65
2022/12/27 08:12:28;;;;;;;7.85;3.92;;;;;;;5.81;100.00;99305.41;5041433;28;20024;-63
2022/12/27 08:14:54;;;;;;;6.85;4.03;;;;;;;5.80;100.00;99298.59;5057037;28;20161;-64
2022/12/27 08:17:28;;;;;;;7.93;4.60;;;;;;;5.83;100.00;99303.56;5057969;28;20021;-64
2022/12/27 08:19:54;;;;;;;10.88;6.38;;;;;;;5.78;100.00;99303.84;5024955;28;20373;-63
2022/12/27 08:22:21;;;;;;;16.55;8.38;;;;;;;5.83;100.00;99306.97;5041605;28;20024;-63
2022/12/27 08:24:47;;;;;;;19.15;9.80;;;;;;;5.84;100.00;99312.94;5025477;28;20467;-62
2022/12/27 08:27:19;;;;;;;24.35;12.15;;;;;;;5.79;100.00;99308.09;5042502;28;20027;-65
2022/12/27 08:29:44;;;;;;;12.48;7.18;;;;;;;5.77;100.00;99308.19;5038768;28;20096;-65
2022/12/27 08:32:10;;;;;;;11.07;5.53;;;;;;;5.90;100.00;99308.22;5039346;28;20558;-66
2022/12/27 08:34:35;;;;;;;11.18;6.25;;;;;;;5.63;100.00;99272.09;5055019;28;20035;-64
2022/12/27 08:37:01;;;;;;;10.32;5.57;;;;;;;5.86;100.00;99311.94;5061055;28;20063;-60
2022/12/27 08:39:26;;;;;;;11.32;5.40;;;;;;;5.97;100.00;99325.00;5040166;28;20040;-67
2022/12/27 08:41:52;;;;;;;7.32;4.07;;;;;;;6.03;100.00;99317.81;5055587;28;20906;-63
2022/12/27 08:44:18;;;;;;;7.30;3.80;;;;;;;6.09;100.00;99323.38;5055869;28;20040;-63
2022/12/27 08:46:44;;;;;;;7.28;3.70;;;;;;;6.13;100.00;99326.59;5052324;28;20028;-63
2022/12/27 08:49:10;;;;;;;6.97;3.90;;;;;;;6.08;100.00;99331.25;5037358;28;20055;-65
2022/12/27 08:51:35;;;;;;;18.80;8.50;;;;;;;5.93;100.00;99326.09;5059885;28;20028;-65
2022/12/27 08:54:01;;;;;;;8.18;4.20;;;;;;;5.89;100.00;99300.56;5038532;28;20033;-65
2022/12/27 08:56:27;;;;;;;7.10;3.40;;;;;;;6.13;100.00;99326.59;5039105;28;20057;-63
2022/12/27 08:58:52;;;;;;;8.13;3.83;;;;;;;6.08;100.00;99319.16;5031346;28;20026;-65
2022/12/27 09:01:18;;;;;;;10.05;4.57;;;;;;;6.07;100.00;99330.41;5040193;28;20032;-63
2022/12/27 09:03:45;;;;;;;7.47;4.43;;;;;;;6.02;100.00;99331.63;5031826;28;20039;-62
2022/12/27 09:06:16;;;;;;;9.55;4.15;;;;;;;5.86;100.00;99296.44;5023530;28;20383;-63
2022/12/27 09:08:43;;;;;;;9.10;4.68;;;;;;;6.08;100.00;99326.09;5025157;28;20057;-66
2022/12/27 09:11:12;;;;;;;7.85;4.15;;;;;;;6.06;100.00;99325.34;5013084;28;20036;-63
2022/12/27 09:13:39;;;;;;;9.32;4.82;;;;;;;6.05;100.00;99328.84;5021839;28;20041;-61
2022/12/27 09:16:07;;;;;;;10.77;5.43;;;;;;;6.10;100.00;99337.97;5021085;28;20032;-63
2022/12/27 09:18:32;;;;;;;7.47;4.25;;;;;;;6.05;100.00;99324.50;5040245;28;20032;-64
2022/12/27 09:21:19;;;;;;;10.80;5.05;;;;;;;6.11;100.00;99328.44;5039206;28;20149;-61
2022/12/27 09:23:46;;;;;;;7.93;4.20;;;;;;;6.14;100.00;99326.50;5055567;28;20029;-62
2022/12/27 09:26:15;;;;;;;7.50;4.03;;;;;;;5.93;100.00;99297.72;5024935;28;20414;-63
2022/12/27 09:28:42;;;;;;;7.80;4.10;;;;;;;6.21;100.00;99336.47;5023894;28;20028;-63
2022/12/27 09:31:09;;;;;;;8.23;4.15;;;;;;;6.14;100.00;99343.75;5038829;28;20033;-66
2022/12/27 09:33:35;;;;;;;12.05;6.03;;;;;;;6.19;100.00;99336.56;5026582;28;20043;-63
2022/12/27 09:36:07;;;;;;;15.85;8.02;;;;;;;6.11;100.00;99323.28;5062876;28;20046;-66
2022/12/27 09:38:32;;;;;;;9.73;5.13;;;;;;;6.25;100.00;99346.47;5025222;28;20675;-66
2022/12/27 09:41:02;;;;;;;6.35;3.60;;;;;;;6.21;100.00;99342.44;5057626;28;20104;-62
2022/12/27 09:43:37;;;;;;;8.20;4.25;;;;;;;6.28;100.00;99341.13;5029018;28;20043;-61
2022/12/27 09:46:04;;;;;;;10.80;4.70;;;;;;;6.26;100.00;99342.13;5057290;28;20024;-62
2022/12/27 09:48:37;;;;;;;7.57;4.30;;;;;;;6.27;100.00;99341.22;5033547;28;20115;-66
2022/12/27 09:51:17;;;;;;;7.65;4.50;;;;;;;6.22;100.00;99333.75;5048683;28;20116;-60
2022/12/27 09:53:45;;;;;;;8.98;4.95;;;;;;;6.18;100.00;99345.22;5025517;28;20566;-61
2022/12/27 09:56:14;;;;;;;8.95;5.00;;;;;;;6.20;100.00;99351.09;5040046;28;20028;-65
2022/12/27 09:58:50;;;;;;;8.82;4.20;;;;;;;6.32;100.00;99349.50;5023521;28;20655;-67
2022/12/27 10:01:30;;;;;;;7.00;3.70;;;;;;;6.25;100.00;99340.50;5037444;28;20667;-62
2022/12/27 10:03:56;;;;;;;6.85;3.80;;;;;;;6.51;100.00;99346.53;5034859;28;20385;-61
2022/12/27 10:06:28;;;;;;;7.93;4.57;;;;;;;6.54;100.00;99339.41;5040280;28;20029;-62
2022/12/27 10:09:18;;;;;;;7.88;4.05;;;;;;;6.66;100.00;99336.94;5054606;28;20066;-63
2022/12/27 10:12:03;;;;;;;7.50;3.50;;;;;;;6.80;100.00;99339.41;5058112;28;20533;-64
2022/12/27 10:14:38;;;;;;;8.50;3.85;;;;;;;6.83;100.00;99341.81;5026369;28;20455;-66
2022/12/27 10:17:20;;;;;;;7.45;4.15;;;;;;;6.87;100.00;99332.09;5057752;28;20025;-61
2022/12/27 10:19:53;;;;;;;7.20;3.95;;;;;;;6.88;100.00;99332.00;5037007;28;20029;-64
2022/12/27 10:22:29;;;;;;;8.50;3.95;;;;;;;6.65;100.00;99288.78;5043946;28;20033;-65
2022/12/27 10:24:58;;;;;;;6.88;3.85;;;;;;;6.87;100.00;99324.34;5018244;28;20033;-64
2022/12/27 10:27:26;;;;;;;7.43;4.00;;;;;;;6.92;100.00;99330.03;5010747;28;20098;-67
2022/12/27 10:29:54;;;;;;;7.70;4.10;;;;;;;6.97;100.00;99327.13;5009994;28;20040;-63
2022/12/27 10:32:19;;;;;;;7.18;4.05;;;;;;;7.03;100.00;99324.94;5028105;28;20093;-67
2022/12/27 10:34:54;;;;;;;7.47;4.53;;;;;;;6.74;100.00;99257.13;5028450;28;20163;-62
2022/12/27 10:37:20;;;;;;;6.93;4.20;;;;;;;6.98;100.00;99306.34;5034462;28;20056;-66
2022/12/27 10:39:46;;;;;;;8.85;4.25;;;;;;;7.05;100.00;99310.16;5019956;28;20060;-65
2022/12/27 10:42:57;;;;;;;7.13;4.03;;;;;;;7.12;100.00;99308.81;5045268;28;20107;-61
2022/12/27 10:45:32;;;;;;;7.32;3.80;;;;;;;7.25;100.00;99315.72;4937444;28;20146;-64
2022/12/27 10:48:19;;;;;;;6.95;3.78;;;;;;;7.13;100.00;99274.22;4948196;28;20053;-63
2022/12/27 10:50:47;;;;;;;8.65;3.80;;;;;;;7.24;100.00;99306.31;4951319;28;20903;-66
2022/12/27 10:53:37;;;;;;;8.05;4.60;;;;;;;7.29;100.00;99306.81;4946927;28;20030;-67
2022/12/27 10:56:11;;;;;;;5.90;3.65;;;;;;;7.36;100.00;99304.63;4965062;28;20482;-63
2022/12/27 10:58:40;;;;;;;6.38;3.08;;;;;;;7.37;100.00;99307.09;4932040;28;20406;-67
2022/12/27 11:01:15;;;;;;;7.43;4.10;;;;;;;7.29;100.00;99257.66;4932548;28;20042;-63
2022/12/27 11:03:41;;;;;;;6.53;3.55;;;;;;;7.64;100.00;99287.97;4947707;28;20034;-65
2022/12/27 11:06:17;;;;;;;6.85;3.25;;;;;;;7.23;100.00;99214.13;4964819;28;20052;-63
2022/12/27 11:08:44;;;;;;;6.70;3.55;;;;;;;7.66;100.00;99286.91;4945394;28;20031;-64
2022/12/27 11:11:19;;;;;;;5.47;3.10;;;;;;;7.62;100.00;99297.63;4954189;28;20129;-65
2022/12/27 11:13:45;;;;;;;6.28;3.33;;;;;;;7.59;100.00;99295.22;4955199;28;20600;-62
2022/12/27 11:16:24;;;;;;;6.22;3.00;;;;;;;7.57;100.00;99291.94;4976174;28;20056;-64
2022/12/27 11:18:52;;;;;;;6.32;3.22;;;;;;;7.52;100.00;99289.69;5020473;28;20441;-62
2022/12/27 11:21:19;;;;;;;6.38;3.20;;;;;;;7.58;100.00;99280.66;5020047;28;20270;-66
2022/12/27 11:23:51;;;;;;;5.78;3.05;;;;;;;7.64;100.00;99277.63;5031090;28;20033;-63
2022/12/27 11:26:23;;;;;;;6.28;2.72;;;;;;;7.72;100.00;99274.47;5027914;28;20051;-68
2022/12/27 11:29:15;;;;;;;9.23;3.60;;;;;;;7.69;100.00;99275.53;5010616;28;20024;-64
2022/12/27 11:31:46;;;;;;;7.45;3.63;;;;;;;7.72;100.00;99272.72;5004371;28;20049;-68
2022/12/27 11:34:18;;;;;;;6.75;3.05;;;;;;;7.53;100.00;99229.22;5022339;28;20697;-64
2022/12/27 11:36:49;;;;;;;6.82;3.42;;;;;;;7.78;100.00;99256.75;5028273;28;20016;-65
2022/12/27 11:39:40;;;;;;;6.60;3.03;;;;;;;7.98;100.00;99262.25;5024385;28;20043;-62
2022/12/27 11:42:30;;;;;;;7.13;2.90;;;;;;;8.23;100.00;99250.88;5017217;28;20546;-63
2022/12/27 11:44:58;;;;;;;;;;;;;;;8.34;100.00;99247.50;5039817;28;20020;-65
2022/12/27 11:47:27;;;;;;;6.70;3.10;;;;;;;8.30;100.00;99244.31;5057222;28;19920;-64
2022/12/27 11:50:25;;;;;;;6.20;3.20;;;;;;;8.40;99.21;99234.09;5029067;28;20458;-61
2022/12/27 11:53:09;;;;;;;6.60;2.90;;;;;;;8.44;99.51;99230.34;5060488;28;20116;-64
2022/12/27 11:55:53;;;;;;;6.50;3.25;;;;;;;8.48;100.00;99225.78;5061050;28;20039;-64
2022/12/27 11:58:24;;;;;;;6.82;3.30;;;;;;;8.52;100.00;99215.03;5061527;28;20507;-66
2022/12/27 12:01:00;;;;;;;6.32;3.08;;;;;;;8.77;100.00;99219.19;5039600;28;20039;-64
2022/12/27 12:03:31;;;;;;;7.28;3.47;;;;;;;8.90;99.30;99224.22;5034342;28;20033;-63
2022/12/27 12:06:19;;;;;;;6.63;3.50;;;;;;;9.01;97.92;99211.25;5040575;28;20036;-60
2022/12/27 12:09:09;;;;;;;6.43;3.20;;;;;;;9.02;99.49;99210.31;5026432;28;20025;-65
2022/12/27 12:11:50;;;;;;;5.97;3.13;;;;;;;8.96;99.74;99204.78;5046686;28;20173;-61
2022/12/27 12:14:40;;;;;;;7.68;3.33;;;;;;;8.65;100.00;99163.91;5044710;28;20368;-60
2022/12/27 12:17:27;;;;;;;5.38;2.88;;;;;;;8.81;100.00;99201.63;5020747;28;20037;-61
2022/12/27 12:20:17;;;;;;;9.02;3.67;;;;;;;8.84;100.00;99194.41;5041826;28;20087;-61
2022/12/27 12:22:48;;;;;;;8.95;3.53;;;;;;;8.89;99.85;99195.81;5058309;28;20577;-67
2022/12/27 12:25:32;;;;;;;7.40;2.85;;;;;;;8.97;100.00;99180.50;5051382;28;20036;-63
2022/12/27 12:28:35;;;;;;;8.90;3.03;;;;;;;9.04;100.00;99184.25;5059978;28;20032;-62
2022/12/27 12:31:19;;;;;;;6.32;2.80;;;;;;;9.12;100.00;99184.47;5060111;28;20614;-63
2022/12/27 12:33:56;;;;;;;6.93;2.92;;;;;;;9.27;98.36;99177.22;5058564;28;20556;-66
2022/12/27 12:36:39;;;;;;;6.47;3.10;;;;;;;9.26;99.16;99165.22;5031480;28;20532;-63
2022/12/27 12:39:15;;;;;;;7.25;3.35;;;;;;;9.41;98.01;99168.34;5039127;28;20040;-64
2022/12/27 12:42:22;;;;;;;8.20;3.03;;;;;;;9.51;96.74;99163.22;5038921;28;20099;-63
2022/12/27 12:45:22;;;;;;;6.28;3.08;;;;;;;9.55;96.92;99162.06;5036768;28;20988;-65
2022/12/27 12:48:15;;;;;;;8.57;3.42;;;;;;;9.48;96.55;99147.94;5041978;28;20676;-64
2022/12/27 12:50:53;;;;;;;7.40;3.20;;;;;;;9.68;96.29;99157.50;5059528;28;20522;-64
2022/12/27 12:53:44;;;;;;;7.10;3.30;;;;;;;9.73;96.27;99157.09;5064218;28;20052;-65
2022/12/27 12:56:55;;;;;;;7.28;3.45;;;;;;;9.29;94.62;99083.69;5042564;28;20915;-65
2022/12/27 12:59:30;;;;;;;5.68;3.17;;;;;;;9.71;96.21;99159.00;5028548;28;20047;-63
2022/12/27 13:02:29;;;;;;;6.78;3.05;;;;;;;9.58;93.26;99113.31;5039378;28;20111;-67
2022/12/27 13:05:04;;;;;;;6.45;3.20;;;;;;;9.82;93.75;99149.41;5046092;28;20454;-67
2022/12/27 13:07:40;;;;;;;6.55;2.95;;;;;;;9.91;93.68;99141.78;5044045;28;20036;-65
2022/12/27 13:10:43;;;;;;;6.72;3.13;;;;;;;10.02;91.75;99141.75;5045474;28;20140;-64
2022/12/27 13:13:30;;;;;;;7.18;3.40;;;;;;;10.05;92.75;99140.66;5025718;28;20374;-64
2022/12/27 13:16:09;;;;;;;5.38;3.13;;;;;;;9.97;92.58;99141.28;5047497;28;20025;-65
2022/12/27 13:18:44;;;;;;;7.50;3.70;;;;;;;9.96;93.22;99142.22;5019681;28;20056;-64
2022/12/27 13:21:12;;;;;;;6.13;3.33;;;;;;;9.93;94.63;99142.47;5042461;28;20287;-67
2022/12/27 13:23:50;;;;;;;6.22;3.22;;;;;;;9.93;92.41;99137.28;5041255;28;20463;-66
2022/12/27 13:26:37;;;;;;;6.18;3.50;;;;;;;10.15;88.36;99131.94;5059088;28;20033;-64
2022/12/27 13:29:33;;;;;;;6.47;3.05;;;;;;;10.17;87.04;99093.66;5059234;28;20099;-63
2022/12/27 13:32:17;;;;;;;6.50;3.88;;;;;;;10.28;87.07;99105.75;5044141;28;20097;-66
2022/12/27 13:35:04;;;;;;;5.93;2.97;;;;;;;10.42;87.61;99133.19;5049290;28;20040;-64
2022/12/27 13:37:49;;;;;;;5.18;2.80;;;;;;;10.42;86.82;99135.78;5054020;28;20509;-65